createdAt,value
2017-10-04T12:50:24.097Z,26624
2017-10-04T12:50:42.907Z,26816
2017-10-04T12:51:02.633Z,26976
2017-10-04T12:51:21.318Z,26240
2017-10-04T12:52:12.179Z,25952
2017-10-04T12:52:30.953Z,25184
2017-10-04T12:52:49.430Z,25184
2017-10-04T12:53:08.512Z,25664
2017-10-04T12:53:28.193Z,26112
2017-10-04T12:53:47.832Z,26784
2017-10-04T12:54:07.160Z,26688
2017-10-04T12:54:26.423Z,27744
2017-10-04T12:54:45.418Z,29312
2017-10-04T12:55:04.561Z,29696
2017-10-04T12:55:24.047Z,31488
2017-10-04T12:55:43.689Z,30720
2017-10-04T12:56:01.622Z,32960
2017-10-04T12:56:33.898Z,33280
2017-10-04T12:56:52.961Z,32256
2017-10-04T12:57:11.416Z,35808
2017-10-04T12:57:30.218Z,38592
2017-10-04T12:57:48.707Z,42656
2017-10-04T12:58:07.668Z,45152
2017-10-04T12:58:26.106Z,47296
2017-10-04T12:58:49.638Z,44768
2017-10-04T12:59:08.066Z,46496
2017-10-04T12:59:26.400Z,49504
2017-10-04T12:59:45.382Z,44928
2017-10-04T13:00:04.128Z,45856
2017-10-04T13:00:36.891Z,51424
2017-10-04T13:00:56.682Z,41152
2017-10-04T13:01:29.643Z,39808
2017-10-04T13:01:48.957Z,38176
2017-10-04T13:02:08.835Z,44288
2017-10-04T13:02:27.265Z,44896
2017-10-04T13:02:46.269Z,46144
2017-10-04T13:03:04.742Z,42368
2017-10-04T13:03:24.153Z,42272
2017-10-04T13:03:43.623Z,41376
2017-10-04T13:04:15.940Z,37920
2017-10-04T13:04:34.956Z,36768
2017-10-04T13:04:54.724Z,33216
2017-10-04T13:05:12.996Z,32000
2017-10-04T13:05:32.801Z,35360
2017-10-04T13:05:51.859Z,36288
2017-10-04T13:06:12.005Z,34752
2017-10-04T13:06:31.296Z,36352
2017-10-04T13:06:50.301Z,34816
2017-10-04T13:07:43.900Z,33120
2017-10-04T13:08:03.346Z,37312
2017-10-04T13:08:54.799Z,42528
2017-10-04T13:09:27.820Z,45600
2017-10-04T13:09:47.216Z,47072
2017-10-04T13:10:08.364Z,46400
2017-10-04T13:10:27.710Z,46560
2017-10-04T13:10:46.913Z,46368
2017-10-04T13:11:20.433Z,49024
2017-10-04T13:11:39.940Z,46688
2017-10-04T13:11:58.922Z,50304
2017-10-04T13:12:20.484Z,50752
2017-10-04T13:12:39.680Z,46624
2017-10-04T13:12:58.545Z,48448
2017-10-04T13:13:17.436Z,46976
2017-10-04T13:13:36.887Z,50208
2017-10-04T13:13:56.204Z,44608
2017-10-04T13:14:14.980Z,51680
2017-10-04T13:14:34.149Z,49536
2017-10-04T13:14:52.478Z,53984
2017-10-04T13:15:10.922Z,57120
2017-10-04T13:15:43.873Z,51808
2017-10-04T13:16:01.648Z,47264
2017-10-04T13:16:20.545Z,46816
2017-10-04T13:16:38.859Z,53024
2017-10-04T13:16:57.191Z,55968
2017-10-04T13:17:15.535Z,50176
2017-10-04T13:17:34.372Z,49376
2017-10-04T13:17:52.684Z,60960
2017-10-04T13:18:26.145Z,58048
2017-10-04T13:18:44.900Z,60288
2017-10-04T13:19:04.498Z,61920
2017-10-04T13:19:28.132Z,52864
2017-10-04T13:19:51.110Z,54656
2017-10-04T13:20:13.013Z,54752
2017-10-04T13:20:33.977Z,53280
2017-10-04T13:20:53.868Z,59296
2017-10-04T13:21:12.775Z,51520
2017-10-04T13:21:45.709Z,49184
2017-10-04T13:22:05.296Z,50656
2017-10-04T13:22:57.268Z,48832
2017-10-04T13:23:30.933Z,52096
2017-10-04T13:23:50.209Z,49664
2017-10-04T13:24:08.209Z,51328
2017-10-04T13:24:27.252Z,52192
2017-10-04T13:24:47.138Z,52640
2017-10-04T13:25:20.898Z,43296
2017-10-04T13:26:27.188Z,46080
2017-10-04T13:26:46.308Z,43360
2017-10-04T13:27:04.050Z,50720
2017-10-04T13:27:23.287Z,51040
2017-10-04T13:27:42.313Z,46592
2017-10-04T13:28:02.013Z,40096
2017-10-04T13:28:21.545Z,37408
2017-10-04T13:28:40.660Z,34784
2017-10-04T13:29:14.042Z,31616
2017-10-04T13:29:46.938Z,31264
2017-10-04T13:30:05.937Z,32704
2017-10-04T13:30:24.953Z,33216
2017-10-04T13:30:44.221Z,32672
2017-10-04T13:31:03.887Z,33184
2017-10-04T13:31:22.876Z,32864
2017-10-04T13:31:41.898Z,33344
2017-10-04T13:32:00.226Z,31456
2017-10-04T13:32:18.688Z,31968
2017-10-04T13:32:36.421Z,33920
2017-10-04T13:32:56.136Z,35296
2017-10-04T13:33:28.376Z,35072
2017-10-04T13:33:47.398Z,35520
2017-10-04T13:34:05.156Z,34272
2017-10-04T13:34:24.728Z,34240
2017-10-04T13:34:57.680Z,34944
2017-10-04T13:35:16.464Z,34880
2017-10-04T13:35:34.444Z,35040
2017-10-04T13:35:53.938Z,34400
2017-10-04T13:36:12.383Z,34592
2017-10-04T13:36:30.863Z,36096
2017-10-04T13:36:49.908Z,37248
2017-10-04T13:37:09.035Z,37920
2017-10-04T13:37:28.370Z,38592
2017-10-04T13:37:47.176Z,38016
2017-10-04T13:38:06.086Z,37856
2017-10-04T13:38:24.627Z,44448
2017-10-04T13:38:43.692Z,45600
2017-10-04T13:39:04.245Z,43584
2017-10-04T13:39:23.275Z,42656
2017-10-04T13:39:42.691Z,43520
2017-10-04T13:40:01.938Z,45440
2017-10-04T13:40:23.068Z,44320
2017-10-04T13:40:54.835Z,47072
2017-10-04T13:41:12.606Z,47168
2017-10-04T13:41:31.471Z,46816
2017-10-04T13:42:23.916Z,41696
2017-10-04T13:42:56.781Z,40640
2017-10-04T13:43:49.278Z,36768
2017-10-04T13:44:09.234Z,35776
2017-10-04T13:44:42.744Z,34048
2017-10-04T13:45:00.855Z,33952
2017-10-04T13:45:19.801Z,33728
2017-10-04T13:45:53.125Z,34176
2017-10-04T13:46:12.181Z,33280
2017-10-04T13:46:44.432Z,34336
2017-10-04T13:47:02.851Z,34464
2017-10-04T13:47:21.913Z,36160
2017-10-04T13:47:40.959Z,36544
2017-10-04T13:48:00.208Z,36928
2017-10-04T13:48:19.201Z,36864
2017-10-04T13:48:51.719Z,35936
2017-10-04T13:49:11.825Z,35328
2017-10-04T13:49:30.856Z,34880
2017-10-04T13:50:24.373Z,37696
2017-10-04T13:50:48.727Z,38080
2017-10-04T13:51:11.761Z,39232
2017-10-04T13:51:44.821Z,39392
2017-10-04T13:52:03.314Z,38016
2017-10-04T13:52:54.611Z,38176
2017-10-04T13:53:12.880Z,40160
2017-10-04T13:53:46.257Z,38272
2017-10-04T13:54:05.193Z,38400
2017-10-04T13:54:24.605Z,38784
2017-10-04T13:54:43.913Z,36832
2017-10-04T13:55:02.800Z,39104
2017-10-04T13:55:54.676Z,39840
2017-10-04T13:56:28.229Z,42176
2017-10-04T13:56:47.094Z,41280
2017-10-04T13:57:22.213Z,36832
2017-10-04T13:57:41.933Z,35200
2017-10-04T13:58:00.726Z,36704
2017-10-04T13:58:34.087Z,42336
2017-10-04T13:58:51.934Z,44864
2017-10-04T13:59:12.204Z,45024
2017-10-04T13:59:45.262Z,44320
2017-10-04T14:00:04.068Z,43744
2017-10-04T14:00:22.643Z,42432
2017-10-04T14:00:43.813Z,43744
2017-10-04T14:01:16.055Z,45248
2017-10-04T14:01:36.515Z,46752
2017-10-04T14:02:12.301Z,49248
2017-10-04T14:02:30.571Z,47392
2017-10-04T14:02:48.708Z,43232
2017-10-04T14:03:20.948Z,46528
2017-10-04T14:03:39.299Z,43104
2017-10-04T14:03:57.796Z,40256
2017-10-04T14:04:17.167Z,44448
2017-10-04T14:04:36.269Z,43904
2017-10-04T14:05:29.132Z,51040
2017-10-04T14:05:48.459Z,54336
2017-10-04T14:06:07.926Z,58368
2017-10-04T14:06:27.388Z,56736
2017-10-04T14:06:44.723Z,64096
2017-10-04T14:07:16.624Z,58720
2017-10-04T14:07:36.577Z,48448
2017-10-04T14:07:57.237Z,41248
2017-10-04T14:08:30.394Z,38464
2017-10-04T14:08:49.706Z,39648
2017-10-04T14:09:09.171Z,44448
2017-10-04T14:09:28.573Z,45408
2017-10-04T14:10:03.327Z,47008
2017-10-04T14:11:08.924Z,53984
2017-10-04T14:11:27.451Z,52992
2017-10-04T14:11:47.392Z,54944
2017-10-04T14:12:21.214Z,57632
2017-10-04T14:12:40.262Z,49120
2017-10-04T14:12:58.965Z,44384
2017-10-04T14:13:18.075Z,52992
2017-10-04T14:13:37.672Z,53344
2017-10-04T14:13:56.757Z,52224
2017-10-04T14:14:49.127Z,53312
2017-10-04T14:15:21.889Z,51424
2017-10-04T14:15:40.969Z,59936
2017-10-04T14:15:59.684Z,61760
2017-10-04T14:16:32.821Z,59584
2017-10-04T14:16:51.844Z,66240
2017-10-04T14:17:24.820Z,67840
2017-10-04T14:17:43.613Z,67008
2017-10-04T14:18:16.478Z,65760
2017-10-04T14:18:34.841Z,64704
2017-10-04T14:18:53.098Z,61312
2017-10-04T14:19:11.950Z,60832
2017-10-04T14:19:31.380Z,59296
2017-10-04T14:19:50.392Z,59936
2017-10-04T14:20:42.682Z,60352
2017-10-04T14:21:01.875Z,61664
2017-10-04T14:21:20.434Z,61024
2017-10-04T14:21:40.102Z,62784
2017-10-04T14:21:59.200Z,64512
2017-10-04T14:22:31.703Z,65536
2017-10-04T14:22:51.247Z,62016
2017-10-04T14:23:10.985Z,62016
2017-10-04T14:23:30.864Z,61568
2017-10-04T14:23:49.264Z,60512
2017-10-04T14:24:09.336Z,51328
2017-10-04T14:24:28.864Z,50272
2017-10-04T14:25:21.078Z,53088
2017-10-04T14:25:39.945Z,57120
2017-10-04T14:25:59.646Z,62496
2017-10-04T14:26:18.080Z,62944
2017-10-04T14:26:50.965Z,63264
2017-10-04T14:27:24.894Z,65888
2017-10-04T14:27:44.410Z,64864
2017-10-04T14:28:08.012Z,62048
2017-10-04T14:28:32.051Z,62560
2017-10-04T14:28:51.911Z,58048
2017-10-04T14:29:14.486Z,56704
2017-10-04T14:29:34.793Z,57248
2017-10-04T14:29:54.709Z,57184
2017-10-04T14:30:28.046Z,58784
2017-10-04T14:30:47.329Z,61984
2017-10-04T14:31:20.784Z,60512
2017-10-04T14:31:39.892Z,61536
2017-10-04T14:32:12.831Z,61504
2017-10-04T14:32:31.538Z,60768
2017-10-04T14:32:51.101Z,60832
2017-10-04T14:33:56.943Z,61664
2017-10-04T14:34:30.169Z,62176
2017-10-04T14:34:49.276Z,62016
2017-10-04T14:35:21.747Z,61152
2017-10-04T14:35:54.708Z,56992
2017-10-04T14:36:27.701Z,56448
2017-10-04T14:36:46.792Z,58336
2017-10-04T14:37:05.885Z,56512
2017-10-04T14:37:26.038Z,55104
2017-10-04T14:37:47.668Z,54912
2017-10-04T14:38:11.769Z,54336
2017-10-04T14:38:36.762Z,57536
2017-10-04T14:38:57.887Z,57408
2017-10-04T14:39:30.985Z,56896
2017-10-04T14:39:50.296Z,56288
2017-10-04T14:40:09.385Z,56000
2017-10-04T14:40:28.943Z,57408
2017-10-04T14:40:47.757Z,57632
2017-10-04T14:41:07.440Z,57760
2017-10-04T14:41:27.634Z,58496
2017-10-04T14:42:02.726Z,59936
2017-10-04T14:42:35.664Z,60576
2017-10-04T14:43:08.749Z,62528
2017-10-04T14:43:41.085Z,61216
2017-10-04T14:44:00.376Z,62304
2017-10-04T14:44:32.803Z,62976
2017-10-04T14:44:51.875Z,60608
2017-10-04T14:45:11.684Z,63360
2017-10-04T14:45:44.987Z,64544
2017-10-04T14:46:03.386Z,64608
2017-10-04T14:46:36.040Z,63648
2017-10-04T14:47:08.980Z,62880
2017-10-04T14:47:27.915Z,63232
2017-10-04T14:47:46.743Z,66464
2017-10-04T14:48:06.041Z,62272
2017-10-04T14:48:25.270Z,59936
2017-10-04T14:48:44.927Z,63328
2017-10-04T14:49:03.241Z,59040
2017-10-04T14:49:22.097Z,60640
2017-10-04T14:49:54.956Z,58176
2017-10-04T14:50:27.918Z,56672
2017-10-04T14:50:46.395Z,52608
2017-10-04T14:51:05.249Z,57696
2017-10-04T14:51:24.349Z,58688
2017-10-04T14:51:44.783Z,59808
2017-10-04T14:52:36.689Z,59776
2017-10-04T14:52:56.934Z,63456
2017-10-04T14:53:15.925Z,60832
2017-10-04T14:53:34.719Z,61344
2017-10-04T14:54:07.875Z,57888
2017-10-04T14:54:26.587Z,62112
2017-10-04T14:54:59.893Z,63104
2017-10-04T14:55:17.117Z,63520
2017-10-04T14:55:37.156Z,60512
2017-10-04T14:55:59.516Z,59520
2017-10-04T14:56:36.433Z,52544
2017-10-04T14:56:58.848Z,58080
2017-10-04T14:57:18.161Z,55456
2017-10-04T14:57:37.655Z,56768
2017-10-04T14:57:56.966Z,58112
2017-10-04T14:58:16.725Z,56960
2017-10-04T14:58:49.006Z,54592
2017-10-04T14:59:21.874Z,54496
2017-10-04T14:59:40.166Z,53952
2017-10-04T15:00:32.846Z,53536
2017-10-04T15:00:52.205Z,55200
2017-10-04T15:01:11.296Z,54464
2017-10-04T15:01:30.441Z,56672
2017-10-04T15:01:50.239Z,56032
2017-10-04T15:02:09.166Z,55840
2017-10-04T15:02:28.774Z,56096
2017-10-04T15:02:48.866Z,57696
2017-10-04T15:03:09.191Z,58720
2017-10-04T15:03:31.518Z,59872
2017-10-04T15:03:51.819Z,60256
2017-10-04T15:04:26.673Z,61696
2017-10-04T15:04:47.970Z,62976
2017-10-04T15:05:09.011Z,62400
2017-10-04T15:05:42.859Z,55200
2017-10-04T15:06:02.239Z,46208
2017-10-04T15:06:20.801Z,44992
2017-10-04T15:06:40.166Z,53216
2017-10-04T15:06:59.960Z,59680
2017-10-04T15:07:19.628Z,58912
2017-10-04T15:07:39.696Z,64320
2017-10-04T15:07:59.538Z,63744
2017-10-04T15:08:32.967Z,59840
2017-10-04T15:08:52.721Z,60672
2017-10-04T15:09:26.922Z,56960
2017-10-04T15:09:46.529Z,59520
2017-10-04T15:10:18.942Z,54656
2017-10-04T15:10:37.646Z,57120
2017-10-04T15:10:59.560Z,59168
2017-10-04T15:11:33.725Z,59008
2017-10-04T15:11:53.852Z,61440
2017-10-04T15:12:14.118Z,63488
2017-10-04T15:12:35.374Z,64256
2017-10-04T15:12:54.935Z,62880
2017-10-04T15:13:15.126Z,62592
2017-10-04T15:13:35.804Z,65120
2017-10-04T15:13:55.368Z,65568
2017-10-04T15:14:30.083Z,71264
2017-10-04T15:14:50.034Z,70176
2017-10-04T15:15:10.296Z,70784
2017-10-04T15:15:29.907Z,66752
2017-10-04T15:15:49.115Z,69856
2017-10-04T15:16:09.801Z,70240
2017-10-04T15:16:30.552Z,66592
2017-10-04T15:16:50.358Z,66080
2017-10-04T15:17:08.093Z,69504
2017-10-04T15:17:26.884Z,70368
2017-10-04T15:17:46.997Z,71488
2017-10-04T15:18:19.926Z,68224
2017-10-04T15:18:39.569Z,68576
2017-10-04T15:18:57.848Z,64480
2017-10-04T15:19:17.680Z,64320
2017-10-04T15:19:36.525Z,64096
2017-10-04T15:20:10.209Z,66560
2017-10-04T15:20:29.357Z,68320
2017-10-04T15:21:17.013Z,67712
2017-10-04T15:21:35.866Z,68544
2017-10-04T15:21:55.523Z,64064
2017-10-04T15:22:13.923Z,62976
2017-10-04T15:22:33.392Z,64672
2017-10-04T15:22:53.157Z,48032
2017-10-04T15:23:12.660Z,42752
2017-10-04T15:23:31.103Z,43744
2017-10-04T15:23:48.818Z,42848
2017-10-04T15:24:06.756Z,40992
2017-10-04T15:24:26.125Z,40416
2017-10-04T15:24:44.417Z,41792
2017-10-04T15:25:02.826Z,42368
2017-10-04T15:25:21.636Z,43904
2017-10-04T15:25:54.961Z,46112
2017-10-04T15:26:14.684Z,49568
2017-10-04T15:26:48.271Z,54048
2017-10-04T15:27:07.229Z,52960
2017-10-04T15:27:27.630Z,52768
2017-10-04T15:28:03.429Z,52064
2017-10-04T15:28:22.233Z,51808
2017-10-04T15:28:39.941Z,54528
2017-10-04T15:28:59.250Z,54752
2017-10-04T15:29:30.991Z,59232
2017-10-04T15:29:50.304Z,60352
2017-10-04T15:30:08.794Z,62624
2017-10-04T15:30:27.889Z,62144
2017-10-04T15:30:46.931Z,58048
2017-10-04T15:31:06.215Z,57664
2017-10-04T15:31:25.517Z,59456
2017-10-04T15:31:44.680Z,59872
2017-10-04T15:32:18.187Z,66112
2017-10-04T15:33:11.619Z,53696
2017-10-04T15:33:45.205Z,57632
2017-10-04T15:34:19.560Z,59360
2017-10-04T15:34:40.400Z,53856
2017-10-04T15:34:59.184Z,52704
2017-10-04T15:35:18.834Z,57248
2017-10-04T15:35:37.355Z,53344
2017-10-04T15:35:55.849Z,54592
2017-10-04T15:36:14.559Z,51488
2017-10-04T15:36:32.895Z,50656
2017-10-04T15:36:52.205Z,48064
2017-10-04T15:37:11.871Z,46368
2017-10-04T15:37:30.342Z,44768
2017-10-04T15:37:49.704Z,47584
2017-10-04T15:38:09.169Z,47264
2017-10-04T15:38:28.181Z,48960
2017-10-04T15:39:01.041Z,50048
2017-10-04T15:39:19.875Z,47552
2017-10-04T15:39:39.695Z,47648
2017-10-04T15:39:57.949Z,47104
2017-10-04T15:40:15.853Z,49120
2017-10-04T15:40:34.827Z,53824
2017-10-04T15:41:40.032Z,51872
2017-10-04T15:41:59.229Z,47680
2017-10-04T15:42:32.189Z,55840
2017-10-04T15:42:50.937Z,53600
2017-10-04T15:43:10.005Z,55456
2017-10-04T15:43:28.819Z,60960
2017-10-04T15:43:47.278Z,63648
2017-10-04T15:44:05.694Z,67904
2017-10-04T15:44:25.077Z,66368
2017-10-04T15:44:43.687Z,67424
2017-10-04T15:45:06.649Z,70432
2017-10-04T15:45:28.635Z,76512
2017-10-04T15:45:51.285Z,76160
2017-10-04T15:46:11.268Z,76128
2017-10-04T15:46:30.054Z,69728
2017-10-04T15:46:49.385Z,63616
2017-10-04T15:47:09.405Z,65632
2017-10-04T15:47:28.958Z,64864
2017-10-04T15:47:48.194Z,67488
2017-10-04T15:48:06.356Z,69984
2017-10-04T15:48:58.667Z,63424
2017-10-04T15:49:18.283Z,63936
2017-10-04T15:49:37.251Z,62688
2017-10-04T15:50:10.257Z,67072
2017-10-04T15:50:28.723Z,67840
2017-10-04T15:51:01.564Z,65312
2017-10-04T15:51:21.312Z,67712
2017-10-04T15:51:40.482Z,69664
2017-10-04T15:51:59.129Z,68352
2017-10-04T15:52:17.718Z,61856
2017-10-04T15:52:37.211Z,59168
2017-10-04T15:52:56.897Z,57536
2017-10-04T15:53:16.155Z,58976
2017-10-04T15:53:48.907Z,55744
2017-10-04T15:54:08.894Z,55968
2017-10-04T15:54:28.152Z,54016
2017-10-04T15:55:01.408Z,54368
2017-10-04T15:55:20.308Z,53504
2017-10-04T15:55:39.246Z,56544
2017-10-04T15:55:58.200Z,56192
2017-10-04T15:56:17.240Z,58080
2017-10-04T15:56:36.941Z,60736
2017-10-04T15:56:56.859Z,62848
2017-10-04T15:57:15.610Z,60544
2017-10-04T15:57:34.372Z,60224
2017-10-04T15:57:53.152Z,61056
2017-10-04T15:58:12.255Z,56000
2017-10-04T15:59:05.255Z,51040
2017-10-04T15:59:38.228Z,50912
2017-10-04T15:59:56.895Z,51616
2017-10-04T16:00:16.174Z,52544
2017-10-04T16:00:35.320Z,50528
2017-10-04T16:01:08.787Z,47808
2017-10-04T16:02:00.727Z,45632
2017-10-04T16:02:32.973Z,49472
2017-10-04T16:02:52.217Z,49056
2017-10-04T16:03:11.049Z,45600
2017-10-04T16:03:43.266Z,45472
2017-10-04T16:04:02.307Z,44864
2017-10-04T16:04:21.409Z,47232
2017-10-04T16:04:40.923Z,46272
2017-10-04T16:05:00.148Z,45824
2017-10-04T16:05:32.894Z,45856
2017-10-04T16:05:51.168Z,46048
2017-10-04T16:06:09.957Z,46240
2017-10-04T16:06:42.890Z,49216
2017-10-04T16:07:02.232Z,51168
2017-10-04T16:07:34.679Z,51840
2017-10-04T16:07:53.413Z,50496
2017-10-04T16:08:12.521Z,47936
2017-10-04T16:08:32.000Z,50912
2017-10-04T16:08:48.936Z,51264
2017-10-04T16:09:09.529Z,53504
2017-10-04T16:10:13.698Z,55392
2017-10-04T16:10:32.206Z,57184
2017-10-04T16:10:50.484Z,55072
2017-10-04T16:11:23.957Z,54048
2017-10-04T16:11:56.913Z,56096
2017-10-04T16:12:30.774Z,56192
2017-10-04T16:12:49.224Z,57248
2017-10-04T16:13:08.208Z,57152
2017-10-04T16:13:27.685Z,57344
2017-10-04T16:13:46.678Z,56768
2017-10-04T16:14:23.101Z,57216
2017-10-04T16:14:42.910Z,58016
2017-10-04T16:15:01.521Z,55808
2017-10-04T16:15:20.744Z,55552
2017-10-04T16:15:38.722Z,55008
2017-10-04T16:15:58.106Z,53664
2017-10-04T16:16:30.328Z,51520
2017-10-04T16:16:49.105Z,49376
2017-10-04T16:17:09.324Z,48416
2017-10-04T16:17:28.392Z,46464
2017-10-04T16:18:01.892Z,48480
2017-10-04T16:18:20.959Z,46880
2017-10-04T16:18:38.879Z,47552
2017-10-04T16:18:57.315Z,46016
2017-10-04T16:19:15.885Z,45696
2017-10-04T16:19:35.831Z,44576
2017-10-04T16:19:55.232Z,46240
2017-10-04T16:20:14.406Z,44512
2017-10-04T16:20:33.627Z,42784
2017-10-04T16:21:06.480Z,40512
2017-10-04T16:21:39.682Z,42048
2017-10-04T16:21:58.923Z,42528
2017-10-04T16:22:18.875Z,42528
2017-10-04T16:22:37.935Z,42496
2017-10-04T16:22:59.219Z,41472
2017-10-04T16:23:19.096Z,41824
2017-10-04T16:23:52.914Z,45248
2017-10-04T16:24:25.827Z,45056
2017-10-04T16:24:44.091Z,44032
2017-10-04T16:25:16.816Z,42496
2017-10-04T16:26:08.780Z,41440
2017-10-04T16:27:00.590Z,40096
2017-10-04T16:27:19.436Z,38880
2017-10-04T16:27:38.666Z,39104
2017-10-04T16:28:10.992Z,40384
2017-10-04T16:28:30.343Z,40288
2017-10-04T16:29:03.911Z,39296
2017-10-04T16:29:23.586Z,40800
2017-10-04T16:29:56.588Z,42016
2017-10-04T16:30:16.185Z,41760
2017-10-04T16:30:33.960Z,42272
2017-10-04T16:30:52.336Z,42240
2017-10-04T16:31:12.319Z,43136
2017-10-04T16:31:30.943Z,41920
2017-10-04T16:31:48.867Z,41504
2017-10-04T16:32:07.206Z,41504
2017-10-04T16:32:26.181Z,41952
2017-10-04T16:32:46.190Z,41984
2017-10-04T16:33:06.323Z,42560
2017-10-04T16:33:25.652Z,42944
2017-10-04T16:33:44.939Z,44544
2017-10-04T16:34:03.681Z,44288
2017-10-04T16:34:22.428Z,43840
2017-10-04T16:34:40.691Z,43520
2017-10-04T16:34:59.443Z,42624
2017-10-04T16:35:17.718Z,43296
2017-10-04T16:35:36.881Z,46304
2017-10-04T16:36:09.171Z,43936
2017-10-04T16:36:27.655Z,44672
2017-10-04T16:36:46.115Z,47040
2017-10-04T16:37:39.416Z,49536
2017-10-04T16:37:58.250Z,46880
2017-10-04T16:38:17.537Z,49024
2017-10-04T16:38:36.499Z,49632
2017-10-04T16:38:55.459Z,49152
2017-10-04T16:39:14.770Z,49664
2017-10-04T16:39:34.347Z,49120
2017-10-04T16:39:53.612Z,49120
2017-10-04T16:40:11.612Z,49056
2017-10-04T16:40:30.243Z,49344
2017-10-04T16:40:48.550Z,47968
2017-10-04T16:41:07.366Z,46560
2017-10-04T16:41:25.369Z,45408
2017-10-04T16:41:43.842Z,45088
2017-10-04T16:42:02.925Z,45312
2017-10-04T16:42:36.411Z,47520
2017-10-04T16:42:54.662Z,47744
2017-10-04T16:43:13.858Z,47712
2017-10-04T16:43:32.143Z,45984
2017-10-04T16:43:50.072Z,46976
2017-10-04T16:44:08.371Z,47264
2017-10-04T16:44:27.862Z,48448
2017-10-04T16:44:47.384Z,49600
2017-10-04T16:45:06.096Z,48032
2017-10-04T16:45:24.954Z,47904
2017-10-04T16:45:44.803Z,49024
2017-10-04T16:46:04.440Z,48384
2017-10-04T16:46:23.183Z,46784
2017-10-04T16:46:41.811Z,45696
2017-10-04T16:47:14.086Z,44544
2017-10-04T16:47:32.390Z,44864
2017-10-04T16:47:51.463Z,45920
2017-10-04T16:48:43.491Z,45440
2017-10-04T16:49:02.543Z,46496
2017-10-04T16:49:20.849Z,45504
2017-10-04T16:49:40.108Z,45536
2017-10-04T16:49:59.118Z,45056
2017-10-04T16:50:16.900Z,45088
2017-10-04T16:51:21.858Z,43872
2017-10-04T16:51:41.067Z,42368
2017-10-04T16:51:59.329Z,42432
2017-10-04T16:52:18.013Z,43264
2017-10-04T16:52:36.454Z,42496
2017-10-04T16:52:54.928Z,42400
2017-10-04T16:53:28.544Z,43168
2017-10-04T16:53:47.847Z,42304
2017-10-04T16:54:20.595Z,42144
2017-10-04T16:54:39.150Z,41248
2017-10-04T16:54:58.631Z,40256
2017-10-04T16:55:17.851Z,40576
2017-10-04T16:55:36.369Z,40128
2017-10-04T16:55:55.440Z,38816
2017-10-04T16:56:14.235Z,38336
2017-10-04T16:56:33.555Z,38016
2017-10-04T16:57:07.016Z,37248
2017-10-04T16:57:25.280Z,37120
2017-10-04T16:57:44.940Z,37024
2017-10-04T16:58:37.493Z,34560
2017-10-04T16:59:11.008Z,32608
2017-10-04T16:59:29.429Z,32992
2017-10-04T16:59:48.253Z,33600
2017-10-04T17:00:20.618Z,33568
2017-10-04T17:00:39.768Z,33920
2017-10-04T17:01:12.579Z,33856
2017-10-04T17:01:32.529Z,34048
2017-10-04T17:01:52.064Z,34848
2017-10-04T17:02:11.529Z,35776
2017-10-04T17:02:44.965Z,36800
2017-10-04T17:03:36.898Z,36320
2017-10-04T17:04:09.875Z,36992
2017-10-04T17:04:29.189Z,37440
2017-10-04T17:05:02.009Z,38464
2017-10-04T17:05:20.799Z,38848
2017-10-04T17:05:39.116Z,38720
2017-10-04T17:05:57.832Z,39008
2017-10-04T17:06:30.051Z,38592
2017-10-04T17:07:03.018Z,37184
2017-10-04T17:07:21.112Z,37344
2017-10-04T17:07:40.610Z,36960
2017-10-04T17:07:59.577Z,37792
2017-10-04T17:08:32.990Z,38176
2017-10-04T17:08:52.488Z,37792
2017-10-04T17:09:10.935Z,38304
2017-10-04T17:09:43.894Z,36736
2017-10-04T17:10:02.730Z,37088
2017-10-04T17:10:21.525Z,37856
2017-10-04T17:10:40.488Z,38400
2017-10-04T17:10:58.919Z,38560
2017-10-04T17:11:32.411Z,37824
2017-10-04T17:11:51.153Z,39776
2017-10-04T17:12:10.387Z,38592
2017-10-04T17:12:29.170Z,40480
2017-10-04T17:12:47.136Z,40384
2017-10-04T17:13:06.105Z,38336
2017-10-04T17:13:25.856Z,37440
2017-10-04T17:13:44.651Z,36608
2017-10-04T17:14:03.852Z,36544
2017-10-04T17:14:23.470Z,36480
2017-10-04T17:14:56.972Z,37248
2017-10-04T17:15:15.561Z,37504
2017-10-04T17:15:34.651Z,37312
2017-10-04T17:15:53.250Z,36128
2017-10-04T17:16:12.034Z,34240
2017-10-04T17:16:30.508Z,34528
2017-10-04T17:16:49.888Z,34688
2017-10-04T17:17:43.298Z,33408
2017-10-04T17:18:02.628Z,33984
2017-10-04T17:18:35.646Z,33312
2017-10-04T17:18:56.050Z,32448
2017-10-04T17:19:30.970Z,32000
2017-10-04T17:19:50.206Z,31072
2017-10-04T17:20:09.973Z,30464
2017-10-04T17:20:28.754Z,30240
2017-10-04T17:20:48.572Z,30688
2017-10-04T17:21:41.400Z,30976
2017-10-04T17:22:01.516Z,31904
2017-10-04T17:22:20.474Z,31584
2017-10-04T17:22:52.999Z,29728
2017-10-04T17:23:44.801Z,32800
2017-10-04T17:24:38.611Z,33920
2017-10-04T17:24:57.187Z,31712
2017-10-04T17:25:15.826Z,33568
2017-10-04T17:25:48.882Z,32768
2017-10-04T17:26:22.293Z,36000
2017-10-04T17:26:41.820Z,33408
2017-10-04T17:27:15.380Z,35328
2017-10-04T17:28:06.878Z,37920
2017-10-04T17:28:25.146Z,42016
2017-10-04T17:28:43.134Z,42016
2017-10-04T17:29:02.117Z,44960
2017-10-04T17:29:21.034Z,45536
2017-10-04T17:29:40.593Z,45472
2017-10-04T17:29:59.658Z,44032
2017-10-04T17:30:18.499Z,42976
2017-10-04T17:30:37.474Z,44064
2017-10-04T17:30:55.208Z,44832
2017-10-04T17:31:14.265Z,42368
2017-10-04T17:31:33.033Z,43616
2017-10-04T17:31:52.595Z,45120
2017-10-04T17:32:11.572Z,49312
2017-10-04T17:32:30.333Z,48320
2017-10-04T17:32:48.610Z,44480
2017-10-04T17:33:22.086Z,48128
2017-10-04T17:33:41.570Z,45696
2017-10-04T17:34:00.316Z,43936
2017-10-04T17:34:33.061Z,48992
2017-10-04T17:34:52.339Z,51872
2017-10-04T17:35:11.834Z,51136
2017-10-04T17:35:30.090Z,51232
2017-10-04T17:35:49.609Z,52928
2017-10-04T17:36:08.615Z,52928
2017-10-04T17:36:27.100Z,52032
2017-10-04T17:36:46.966Z,53024
2017-10-04T17:37:05.449Z,51264
2017-10-04T17:37:38.483Z,45120
2017-10-04T17:37:58.789Z,47360
2017-10-04T17:38:17.832Z,50464
2017-10-04T17:38:50.956Z,52320
2017-10-04T17:39:09.251Z,52256
2017-10-04T17:39:28.575Z,52416
2017-10-04T17:39:47.357Z,51200
2017-10-04T17:40:20.590Z,49184
2017-10-04T17:40:40.221Z,48128
2017-10-04T17:40:59.557Z,47488
2017-10-04T17:41:51.453Z,46464
2017-10-04T17:42:23.773Z,45952
2017-10-04T17:42:42.552Z,46048
2017-10-04T17:43:01.328Z,45856
2017-10-04T17:43:20.342Z,45792
2017-10-04T17:43:38.604Z,46656
2017-10-04T17:43:57.072Z,47232
2017-10-04T17:44:48.665Z,50944
2017-10-04T17:45:07.439Z,52480
2017-10-04T17:45:26.201Z,52832
2017-10-04T17:45:45.727Z,52672
2017-10-04T17:46:04.790Z,51776
2017-10-04T17:46:23.781Z,50432
2017-10-04T17:46:42.637Z,48864
2017-10-04T17:47:00.424Z,47776
2017-10-04T17:47:19.186Z,46752
2017-10-04T17:47:38.641Z,45344
2017-10-04T17:48:12.104Z,43264
2017-10-04T17:48:31.118Z,42272
2017-10-04T17:48:49.579Z,41152
2017-10-04T17:49:08.354Z,40096
2017-10-04T17:49:28.010Z,39424
2017-10-04T17:49:47.456Z,39264
2017-10-04T17:50:05.824Z,38752
2017-10-04T17:50:24.803Z,38912
2017-10-04T17:50:43.723Z,38784
2017-10-04T17:51:01.814Z,38528
2017-10-04T17:51:21.094Z,38464
2017-10-04T17:51:39.820Z,38560
2017-10-04T17:52:13.222Z,38624
2017-10-04T17:52:32.054Z,38624
2017-10-04T17:52:50.561Z,39360